Time;durP1;ratioP1;P1;durP2;ratioP2;P2;SDS_P1;SDS_P2;PMS_P1;PMS_P2;Temp;Humidity;BMP_temperature;BMP_pressure;BME280_temperature;BME280_humidity;BME280_pressure;Samples;Min_cycle;Max_cycle;Signal;HPM_P1;HPM_P2
2022/05/01 00:00:09;;;;;;;;;;;5.50;99.90;;;;;;5075396;28;19929;-60
2022/05/01 00:02:34;;;;;;;;;;;5.60;99.90;;;;;;5075171;28;19927;-61
2022/05/01 00:05:01;;;;;;;;;;;5.50;99.90;;;;;;5075206;28;19924;-61
2022/05/01 00:07:26;;;;;;;;;;;5.40;99.90;;;;;;5074296;28;19928;-60
2022/05/01 00:09:52;;;;;;;;;;;5.50;99.90;;;;;;5075117;28;19921;-60
2022/05/01 00:12:17;;;;;;;;;;;5.40;99.90;;;;;;5074583;28;20279;-61
2022/05/01 00:14:43;;;;;;;;;;;5.40;99.90;;;;;;5074793;28;20012;-60
2022/05/01 00:17:08;;;;;;;;;;;5.30;99.90;;;;;;5074820;28;19924;-60
2022/05/01 00:19:34;;;;;;;;;;;5.30;99.90;;;;;;5074869;28;20286;-60
2022/05/01 00:21:59;;;;;;;;;;;5.20;99.90;;;;;;5074865;28;19920;-61
2022/05/01 00:24:25;;;;;;;;;;;5.20;99.90;;;;;;5074669;28;19928;-61
2022/05/01 00:26:51;;;;;;;;;;;5.10;99.90;;;;;;5074383;28;20320;-61
2022/05/01 00:29:17;;;;;;;;;;;5.00;99.90;;;;;;5074334;28;19920;-61
2022/05/01 00:31:42;;;;;;;;;;;5.00;99.90;;;;;;5074410;28;19927;-61
2022/05/01 00:36:52;;;;;;;;;;;4.90;99.90;;;;;;5074526;28;19967;-61
2022/05/01 00:39:17;;;;;;;;;;;5.00;99.90;;;;;;5074549;28;19982;-61
2022/05/01 00:41:45;;;;;;;;;;;5.00;99.90;;;;;;5074400;28;20270;-61
2022/05/01 00:44:14;;;;;;;;;;;5.00;99.90;;;;;;5074030;28;20389;-61
2022/05/01 00:46:41;;;;;;;;;;;4.90;99.90;;;;;;5074173;28;19928;-61
2022/05/01 00:49:09;;;;;;;;;;;4.80;99.90;;;;;;5074141;28;19966;-60
2022/05/01 00:51:44;;;;;;;;;;;4.90;99.90;;;;;;5074159;28;19927;-61
2022/05/01 00:54:15;;;;;;;;;;;4.90;99.90;;;;;;5073696;28;19920;-61
2022/05/01 00:56:41;;;;;;;;;;;4.80;99.90;;;;;;5073912;28;19975;-61
2022/05/01 00:59:08;;;;;;;;;;;4.80;99.90;;;;;;5073562;28;20363;-61
2022/05/01 01:01:34;;;;;;;;;;;4.70;99.90;;;;;;5073759;28;20367;-62
2022/05/01 01:04:00;;;;;;;;;;;4.60;99.90;;;;;;5093254;28;20259;-62
2022/05/01 01:06:25;;;;;;;;;;;4.80;99.90;;;;;;5093724;28;19977;-61
2022/05/01 01:08:51;;;;;;;;;;;4.80;99.90;;;;;;5093857;28;19924;-62
2022/05/01 01:11:17;;;;;;;;;;;4.80;99.90;;;;;;5094134;28;19920;-62
2022/05/01 01:13:43;;;;;;;;;;;4.80;99.90;;;;;;5093954;28;19943;-62
2022/05/01 01:16:09;;;;;;;;;;;4.70;99.90;;;;;;5093900;28;19924;-62
2022/05/01 01:18:35;;;;;;;;;;;4.80;99.90;;;;;;5092545;28;20430;-62
2022/05/01 01:21:00;;;;;;;;;;;4.70;99.90;;;;;;5075626;28;20007;-62
2022/05/01 01:23:26;;;;;;;;;;;4.60;99.90;;;;;;5094135;28;19920;-62
2022/05/01 01:25:52;;;;;;;;;;;4.60;99.90;;;;;;5093437;28;19928;-62
2022/05/01 01:28:18;;;;;;;;;;;4.70;99.90;;;;;;5093894;28;20382;-63
2022/05/01 01:33:29;;;;;;;;;;;4.50;99.90;;;;;;5093920;28;19923;-62
2022/05/01 01:35:55;;;;;;;;;;;4.50;99.90;;;;;;5093753;28;19951;-62
2022/05/01 01:38:21;;;;;;;;;;;4.50;99.90;;;;;;5093652;28;19920;-62
2022/05/01 01:40:51;;;;;;;;;;;4.50;99.90;;;;;;5093380;28;19927;-63
2022/05/01 01:43:18;;;;;;;;;;;4.40;99.90;;;;;;5093340;28;20261;-62
2022/05/01 01:45:43;;;;;;;;;;;4.40;99.90;;;;;;5093534;28;19931;-62
2022/05/01 01:48:13;;;;;;;;;;;4.30;99.90;;;;;;5093514;28;19920;-62
2022/05/01 01:50:39;;;;;;;;;;;4.40;99.90;;;;;;5093529;28;19931;-63
2022/05/01 01:53:05;;;;;;;;;;;4.20;99.90;;;;;;5093730;28;19920;-63
2022/05/01 01:55:33;;;;;;;;;;;4.30;99.90;;;;;;5093580;28;19924;-63
2022/05/01 01:57:59;;;;;;;;;;;4.10;99.90;;;;;;5093567;28;19920;-62
2022/05/01 02:00:25;;;;;;;;;;;4.20;99.90;;;;;;5093461;28;20393;-63
2022/05/01 02:03:00;;;;;;;;;;;4.10;99.90;;;;;;5093768;28;20263;-63
2022/05/01 02:05:26;;;;;;;;;;;4.10;99.90;;;;;;5093634;28;19924;-63
2022/05/01 02:07:52;;;;;;;;;;;4.00;99.90;;;;;;5093710;28;19931;-63
2022/05/01 02:10:17;;;;;;;;;;;4.00;99.90;;;;;;5093443;28;19920;-62
2022/05/01 02:12:43;;;;;;;;;;;4.10;99.90;;;;;;5093519;28;20320;-62
2022/05/01 02:15:09;;;;;;;;;;;3.80;99.90;;;;;;5093403;28;20321;-62
2022/05/01 02:17:35;;;;;;;;;;;3.90;99.90;;;;;;5093280;28;19921;-63
2022/05/01 02:20:01;;;;;;;;;;;3.80;99.90;;;;;;5075011;28;20335;-62
2022/05/01 02:22:26;;;;;;;;;;;3.80;99.90;;;;;;5075120;28;19920;-62
2022/05/01 02:24:53;;;;;;;;;;;3.70;99.90;;;;;;5092909;28;20278;-62
2022/05/01 02:27:18;;;;;;;;;;;3.60;99.90;;;;;;5092817;28;19935;-62
2022/05/01 02:29:44;;;;;;;;;;;3.60;99.90;;;;;;5075068;28;19920;-62
2022/05/01 02:32:10;;;;;;;;;;;3.60;99.90;;;;;;5097162;28;19920;-62
2022/05/01 02:34:35;;;;;;;;;;;3.60;99.90;;;;;;5096753;28;19943;-62
2022/05/01 02:37:01;;;;;;;;;;;3.50;99.90;;;;;;5096927;28;19920;-62
2022/05/01 02:39:26;;;;;;;;;;;3.50;99.90;;;;;;5062109;28;19920;-62
2022/05/01 02:41:52;;;;;;;;;;;3.40;99.90;;;;;;5097046;28;19920;-62
2022/05/01 02:44:17;;;;;;;;;;;3.30;99.90;;;;;;5096915;28;19980;-63
2022/05/01 02:46:43;;;;;;;;;;;3.40;99.90;;;;;;5096693;28;20308;-62
2022/05/01 02:49:10;;;;;;;;;;;3.30;99.90;;;;;;5096804;28;19967;-62
2022/05/01 02:51:36;;;;;;;;;;;3.30;99.90;;;;;;5096745;28;19927;-62
2022/05/01 02:54:04;;;;;;;;;;;3.20;99.90;;;;;;5096641;28;19927;-62
2022/05/01 02:56:30;;;;;;;;;;;3.20;99.90;;;;;;5096764;28;20012;-62
2022/05/01 02:58:56;;;;;;;;;;;3.10;99.90;;;;;;5078349;28;19920;-62
2022/05/01 03:01:21;;;;;;;;;;;3.10;99.90;;;;;;5096504;28;20019;-62
2022/05/01 03:03:47;;;;;;;;;;;3.20;99.90;;;;;;5077836;28;19967;-62
2022/05/01 03:06:12;;;;;;;;;;;3.20;99.90;;;;;;5096080;28;20129;-62
2022/05/01 03:08:38;;;;;;;;;;;3.20;99.90;;;;;;5096365;28;19928;-63
2022/05/01 03:11:03;;;;;;;;;;;3.20;99.90;;;;;;5096385;28;19973;-62
2022/05/01 03:13:29;;;;;;;;;;;3.10;99.90;;;;;;5096351;28;19920;-62
2022/05/01 03:15:54;;;;;;;;;;;3.00;99.90;;;;;;5096357;28;19924;-62
2022/05/01 03:23:49;;;;;;;;;;;2.80;99.90;;;;;;5096348;28;19927;-62
2022/05/01 03:26:18;;;;;;;;;;;2.90;99.90;;;;;;5095505;28;20370;-62
2022/05/01 03:28:44;;;;;;;;;;;2.80;99.90;;;;;;5096138;28;19977;-62
2022/05/01 03:31:10;;;;;;;;;;;2.70;99.90;;;;;;5096025;28;19920;-62
2022/05/01 03:33:36;;;;;;;;;;;2.60;99.90;;;;;;5095879;28;19926;-62
2022/05/01 03:36:06;;;;;;;;;;;2.70;99.90;;;;;;5095880;28;19920;-62
2022/05/01 03:38:33;;;;;;;;;;;2.60;99.90;;;;;;5095866;28;19924;-62
2022/05/01 03:40:59;;;;;;;;;;;2.70;99.90;;;;;;5095564;28;19920;-62
2022/05/01 03:43:24;;;;;;;;;;;2.80;99.90;;;;;;5094547;28;20350;-62
2022/05/01 03:45:50;;;;;;;;;;;2.80;99.90;;;;;;5095336;28;19930;-63
2022/05/01 03:48:15;;;;;;;;;;;2.80;99.90;;;;;;5095492;28;19920;-62
2022/05/01 03:50:41;;;;;;;;;;;2.90;99.90;;;;;;5095142;28;20275;-62
2022/05/01 03:53:07;;;;;;;;;;;2.90;99.90;;;;;;5095328;28;19970;-62
2022/05/01 03:55:33;;;;;;;;;;;3.00;99.90;;;;;;5095380;28;19920;-62
2022/05/01 03:58:00;;;;;;;;;;;3.00;99.90;;;;;;5094995;28;19920;-62
2022/05/01 04:00:25;;;;;;;;;;;3.00;99.90;;;;;;5095397;28;19926;-62
2022/05/01 04:02:52;;;;;;;;;;;2.90;99.90;;;;;;5095057;28;20015;-62
2022/05/01 04:05:17;;;;;;;;;;;2.90;99.90;;;;;;5095160;28;19928;-63
2022/05/01 04:07:43;;;;;;;;;;;2.90;99.90;;;;;;5095212;28;19928;-62
2022/05/01 04:10:09;;;;;;;;;;;2.80;99.90;;;;;;5095114;28;19993;-62
2022/05/01 04:12:38;;;;;;;;;;;2.80;99.90;;;;;;5095021;28;19920;-62
2022/05/01 04:15:07;;;;;;;;;;;2.80;99.90;;;;;;5094981;28;19943;-63
2022/05/01 04:17:39;;;;;;;;;;;2.70;99.90;;;;;;5094726;28;19920;-63
2022/05/01 04:20:06;;;;;;;;;;;2.60;99.90;;;;;;5076293;28;20382;-62
2022/05/01 04:22:41;;;;;;;;;;;2.80;99.90;;;;;;5076519;28;20374;-62
2022/05/01 04:25:13;;;;;;;;;;;2.90;99.90;;;;;;5094571;28;19930;-62
2022/05/01 04:27:39;;;;;;;;;;;2.80;99.90;;;;;;5076283;28;20417;-62
2022/05/01 04:30:04;;;;;;;;;;;2.80;99.90;;;;;;5094788;28;19920;-63
2022/05/01 04:32:30;;;;;;;;;;;2.80;99.90;;;;;;5094565;28;19920;-62
2022/05/01 04:34:55;;;;;;;;;;;2.90;99.90;;;;;;5094757;28;20007;-62
2022/05/01 04:37:22;;;;;;;;;;;3.10;99.90;;;;;;5094490;28;19968;-62
2022/05/01 04:39:48;;;;;;;;;;;3.10;99.90;;;;;;5094758;28;19920;-62
2022/05/01 04:42:15;;;;;;;;;;;3.10;99.90;;;;;;5094525;28;19920;-62
2022/05/01 04:44:41;;;;;;;;;;;3.10;99.90;;;;;;5076143;28;19971;-62
2022/05/01 04:47:06;;;;;;;;;;;3.10;99.90;;;;;;5094378;28;20365;-62
2022/05/01 04:49:32;;;;;;;;;;;3.10;99.90;;;;;;5094312;28;19924;-62
2022/05/01 04:51:58;;;;;;;;;;;3.20;99.90;;;;;;5094337;28;19938;-62
2022/05/01 04:54:23;;;;;;;;;;;3.30;99.90;;;;;;5094311;28;20281;-62
2022/05/01 04:57:09;;;;;;;;;;;3.20;99.90;;;;;;5093930;28;20281;-62
2022/05/01 04:59:35;;;;;;;;;;;3.30;99.90;;;;;;5093803;28;19920;-62
2022/05/01 05:02:01;;;;;;;;;;;3.40;99.90;;;;;;5085333;28;19920;-62
2022/05/01 05:04:27;;;;;;;;;;;3.40;99.90;;;;;;5093838;28;19920;-62
2022/05/01 05:06:54;;;;;;;;;;;3.50;99.90;;;;;;5094045;28;20001;-62
2022/05/01 05:12:05;;;;;;;;;;;3.60;99.90;;;;;;5093945;28;19920;-63
2022/05/01 05:14:31;;;;;;;;;;;3.80;99.90;;;;;;5093771;28;19920;-63
2022/05/01 05:16:57;;;;;;;;;;;3.90;99.90;;;;;;5094142;28;19920;-62
2022/05/01 05:19:23;;;;;;;;;;;3.90;99.90;;;;;;5093926;28;19971;-62
2022/05/01 05:21:49;;;;;;;;;;;4.10;99.90;;;;;;5093731;28;19966;-63
2022/05/01 05:24:14;;;;;;;;;;;4.20;99.90;;;;;;5093738;28;19927;-62
2022/05/01 05:26:40;;;;;;;;;;;4.40;99.90;;;;;;5093383;28;19928;-63
2022/05/01 05:29:05;;;;;;;;;;;4.50;99.90;;;;;;5093748;28;19927;-63
2022/05/01 05:31:31;;;;;;;;;;;4.70;99.90;;;;;;5093432;28;19927;-63
2022/05/01 05:33:56;;;;;;;;;;;4.80;99.90;;;;;;5093752;28;19920;-63
2022/05/01 05:36:22;;;;;;;;;;;4.90;99.90;;;;;;5093762;28;19927;-62
2022/05/01 05:38:47;;;;;;;;;;;5.00;99.90;;;;;;5093802;28;20021;-63
2022/05/01 05:41:13;;;;;;;;;;;5.20;99.90;;;;;;5093586;28;19920;-62
2022/05/01 05:43:39;;;;;;;;;;;5.30;99.90;;;;;;5093333;28;19924;-63
2022/05/01 05:46:05;;;;;;;;;;;5.40;99.90;;;;;;5090980;28;19924;-63
2022/05/01 05:48:31;;;;;;;;;;;5.60;99.90;;;;;;5093168;28;19928;-62
2022/05/01 05:50:56;;;;;;;;;;;5.70;99.90;;;;;;5092682;28;20056;-63
2022/05/01 05:53:22;;;;;;;;;;;5.90;99.90;;;;;;5089678;28;19921;-63
2022/05/01 05:55:48;;;;;;;;;;;6.10;99.90;;;;;;5093465;28;19974;-62
2022/05/01 05:58:15;;;;;;;;;;;6.20;99.90;;;;;;5077832;28;20004;-63
2022/05/01 06:00:40;;;;;;;;;;;6.30;99.90;;;;;;5055004;28;19931;-63
2022/05/01 06:03:06;;;;;;;;;;;6.50;99.90;;;;;;5089053;28;19924;-62
2022/05/01 06:05:31;;;;;;;;;;;6.70;99.90;;;;;;5076909;28;20416;-62
2022/05/01 06:07:57;;;;;;;;;;;6.90;99.90;;;;;;5097352;28;19920;-63
2022/05/01 06:10:23;;;;;;;;;;;7.10;99.90;;;;;;5097453;28;19920;-63
2022/05/01 06:12:48;;;;;;;;;;;7.50;99.90;;;;;;5097406;28;20023;-62
2022/05/01 06:15:14;;;;;;;;;;;7.50;99.90;;;;;;5096696;28;20010;-64
2022/05/01 06:17:39;;;;;;;;;;;7.60;99.90;;;;;;5097263;28;20002;-64
2022/05/01 06:20:05;;;;;;;;;;;7.70;99.90;;;;;;5097255;28;19998;-64
2022/05/01 06:22:30;;;;;;;;;;;7.80;99.90;;;;;;5097203;28;20366;-64
2022/05/01 06:24:56;;;;;;;;;;;7.90;99.90;;;;;;5096904;28;20358;-63
2022/05/01 06:27:22;;;;;;;;;;;8.20;99.90;;;;;;5096900;28;19924;-63
2022/05/01 06:29:47;;;;;;;;;;;8.40;99.90;;;;;;5096674;28;20363;-63
2022/05/01 06:32:15;;;;;;;;;;;8.70;99.90;;;;;;5096881;28;19972;-61
2022/05/01 06:34:41;;;;;;;;;;;9.00;99.90;;;;;;5096976;28;19927;-63
2022/05/01 06:37:07;;;;;;;;;;;9.40;99.90;;;;;;5096619;28;19920;-62
2022/05/01 06:39:33;;;;;;;;;;;9.80;99.90;;;;;;5096551;28;19927;-62
2022/05/01 06:41:58;;;;;;;;;;;10.10;99.90;;;;;;5096601;28;19924;-62
2022/05/01 06:44:24;;;;;;;;;;;10.40;99.90;;;;;;5078324;28;19930;-63
2022/05/01 06:46:49;;;;;;;;;;;10.70;99.90;;;;;;5096184;28;19951;-63
2022/05/01 06:49:15;;;;;;;;;;;10.90;99.90;;;;;;5078569;28;19931;-63
2022/05/01 06:51:40;;;;;;;;;;;11.20;99.90;;;;;;5096581;28;19920;-63
2022/05/01 06:54:08;;;;;;;;;;;11.40;99.90;;;;;;5096458;28;20281;-63
2022/05/01 06:56:34;;;;;;;;;;;11.80;99.90;;;;;;5096196;28;19920;-62
2022/05/01 06:59:00;;;;;;;;;;;11.90;99.90;;;;;;5088899;28;19919;-61
2022/05/01 07:01:26;;;;;;;;;;;12.20;99.90;;;;;;5096332;28;20002;-63
2022/05/01 07:03:51;;;;;;;;;;;12.30;99.90;;;;;;5095985;28;20400;-62
2022/05/01 07:06:17;;;;;;;;;;;12.50;99.90;;;;;;5092218;28;19970;-63
2022/05/01 07:08:42;;;;;;;;;;;12.80;99.90;;;;;;5075737;28;19924;-62
2022/05/01 07:11:08;;;;;;;;;;;13.10;99.90;;;;;;5075248;28;19931;-62
2022/05/01 07:13:35;;;;;;;;;;;12.90;99.90;;;;;;5075416;28;19921;-62
2022/05/01 07:16:00;;;;;;;;;;;13.00;99.90;;;;;;5075298;28;19927;-62
2022/05/01 07:18:26;;;;;;;;;;;12.90;99.90;;;;;;5092536;28;19920;-62
2022/05/01 07:20:51;;;;;;;;;;;13.40;99.90;;;;;;5095402;28;19959;-62
2022/05/01 07:23:21;;;;;;;;;;;13.70;99.90;;;;;;5095448;28;19999;-62
2022/05/01 07:25:47;;;;;;;;;;;13.80;99.90;;;;;;5095241;28;20010;-62
2022/05/01 07:28:13;;;;;;;;;;;14.00;99.90;;;;;;5095015;28;20328;-62
2022/05/01 07:30:38;;;;;;;;;;;14.10;99.90;;;;;;5095426;28;19928;-62
2022/05/01 07:33:04;;;;;;;;;;;14.10;99.90;;;;;;5089886;28;19920;-62
2022/05/01 07:35:29;;;;;;;;;;;14.30;99.90;;;;;;5095334;28;19932;-62
2022/05/01 07:37:55;;;;;;;;;;;14.40;99.90;;;;;;5093793;28;20578;-62
2022/05/01 07:40:24;;;;;;;;;;;14.00;99.90;;;;;;5095049;28;20293;-62
2022/05/01 07:42:52;;;;;;;;;;;13.90;99.90;;;;;;5095224;28;19920;-62
2022/05/01 07:45:18;;;;;;;;;;;14.50;99.90;;;;;;5095327;28;19924;-62
2022/05/01 07:47:43;;;;;;;;;;;14.90;99.90;;;;;;5069542;28;19925;-62
2022/05/01 07:50:09;;;;;;;;;;;15.00;99.90;;;;;;5074746;28;19982;-63
2022/05/01 07:52:35;;;;;;;;;;;15.30;99.90;;;;;;5074696;28;19924;-63
2022/05/01 07:55:01;;;;;;;;;;;15.10;99.90;;;;;;5075321;28;19982;-62
2022/05/01 07:57:27;;;;;;;;;;;15.80;99.90;;;;;;5093992;28;19924;-62
2022/05/01 07:59:53;;;;;;;;;;;16.10;99.90;;;;;;5076645;28;20377;-62
2022/05/01 08:02:18;;;;;;;;;;;16.10;99.90;;;;;;5074615;28;19924;-62
2022/05/01 08:04:44;;;;;;;;;;;16.00;99.90;;;;;;5074606;28;20367;-62
2022/05/01 08:07:10;;;;;;;;;;;16.70;99.90;;;;;;5074446;28;19931;-62
2022/05/01 08:09:36;;;;;;;;;;;16.50;99.90;;;;;;5056464;28;19999;-62
2022/05/01 08:12:02;;;;;;;;;;;16.80;99.90;;;;;;5055868;28;19920;-62
2022/05/01 08:14:27;;;;;;;;;;;16.50;99.90;;;;;;5073962;28;20019;-63
2022/05/01 08:16:53;;;;;;;;;;;16.40;99.90;;;;;;5073852;28;20398;-62
2022/05/01 08:22:06;;;;;;;;;;;15.90;99.90;;;;;;5073910;28;19924;-62
2022/05/01 08:24:35;;;;;;;;;;;15.60;99.90;;;;;;5074044;28;19924;-62
2022/05/01 08:27:05;;;;;;;;;;;15.40;99.90;;;;;;5073597;28;19932;-63
2022/05/01 08:29:32;;;;;;;;;;;15.10;99.90;;;;;;5073164;28;20462;-63
2022/05/01 08:31:58;;;;;;;;;;;15.00;99.90;;;;;;5074231;28;19973;-63
2022/05/01 08:34:23;;;;;;;;;;;14.80;99.90;;;;;;5074166;28;19927;-63
2022/05/01 08:36:49;;;;;;;;;;;15.10;99.90;;;;;;5074060;28;19920;-63
2022/05/01 08:39:14;;;;;;;;;;;15.10;99.90;;;;;;5073938;28;20397;-63
2022/05/01 08:41:40;;;;;;;;;;;15.10;99.90;;;;;;5073875;28;19970;-63
2022/05/01 08:44:08;;;;;;;;;;;15.40;99.90;;;;;;5073827;28;19928;-63
2022/05/01 08:46:36;;;;;;;;;;;15.40;99.90;;;;;;5073575;28;19926;-63
2022/05/01 08:49:03;;;;;;;;;;;15.60;99.90;;;;;;5073279;28;20426;-61
2022/05/01 08:51:30;;;;;;;;;;;15.80;99.90;;;;;;5072992;28;20015;-62
2022/05/01 08:53:57;;;;;;;;;;;16.20;99.90;;;;;;5073097;28;19928;-62
2022/05/01 08:56:24;;;;;;;;;;;16.40;99.40;;;;;;5073355;28;19920;-62
2022/05/01 08:58:50;;;;;;;;;;;16.30;99.90;;;;;;5073200;28;20294;-62
2022/05/01 09:01:16;;;;;;;;;;;16.40;99.90;;;;;;5073524;28;19999;-61
2022/05/01 09:03:43;;;;;;;;;;;16.30;99.80;;;;;;5073242;28;20019;-62
2022/05/01 09:06:09;;;;;;;;;;;16.30;99.10;;;;;;5072894;28;19928;-62
2022/05/01 09:08:36;;;;;;;;;;;16.40;99.30;;;;;;5073384;28;19935;-62
2022/05/01 09:12:49;;;;;;;;;;;16.40;99.40;;;;;;5073360;28;20039;-62
2022/05/01 09:13:47;;;;;;;;;;;16.60;99.70;;;;;;5072813;28;20294;-62
2022/05/01 09:16:13;;;;;;;;;;;16.70;99.20;;;;;;5072569;28;19928;-62
2022/05/01 09:18:43;;;;;;;;;;;16.80;99.90;;;;;;5072735;28;19920;-62
2022/05/01 09:21:08;;;;;;;;;;;16.70;99.90;;;;;;5072484;28;19931;-62
2022/05/01 09:23:44;;;;;;;;;;;16.80;99.90;;;;;;5072975;28;19920;-62
2022/05/01 09:26:10;;;;;;;;;;;16.70;99.90;;;;;;5050868;28;19939;-62
2022/05/01 09:28:37;;;;;;;;;;;16.30;99.20;;;;;;5052593;28;19967;-62
2022/05/01 09:31:03;;;;;;;;;;;16.10;99.60;;;;;;5052530;28;19928;-62
2022/05/01 09:33:29;;;;;;;;;;;16.20;99.90;;;;;;5052792;28;19924;-62
2022/05/01 09:35:55;;;;;;;;;;;16.20;99.90;;;;;;5051688;28;19920;-62
2022/05/01 09:38:21;;;;;;;;;;;16.30;99.90;;;;;;5052921;28;19932;-62
2022/05/01 09:40:50;;;;;;;;;;;16.40;99.30;;;;;;5051880;28;19924;-62
2022/05/01 09:43:32;;;;;;;;;;;16.50;99.90;;;;;;5051180;28;20375;-62
2022/05/01 09:46:16;;;;;;;;;;;16.70;99.90;;;;;;5052539;28;19932;-62
2022/05/01 09:48:43;;;;;;;;;;;16.80;99.90;;;;;;5052430;28;19975;-62
2022/05/01 09:51:18;;;;;;;;;;;16.70;99.90;;;;;;5052653;28;19983;-62
2022/05/01 09:53:45;;;;;;;;;;;16.60;99.80;;;;;;5052621;28;20039;-62
2022/05/01 09:56:10;;;;;;;;;;;16.80;99.90;;;;;;5052790;28;20355;-62
2022/05/01 09:58:43;;;;;;;;;;;16.50;99.90;;;;;;5052641;28;20034;-62
2022/05/01 10:01:13;;;;;;;;;;;16.40;99.90;;;;;;5052367;28;19924;-62
2022/05/01 10:03:39;;;;;;;;;;;16.40;99.90;;;;;;5052405;28;19960;-62
2022/05/01 10:06:06;;;;;;;;;;;16.30;99.90;;;;;;5052385;28;19931;-63
2022/05/01 10:08:32;;;;;;;;;;;16.00;99.90;;;;;;5052458;28;19921;-61
2022/05/01 10:10:58;;;;;;;;;;;16.20;99.90;;;;;;5052538;28;19971;-61
2022/05/01 10:13:27;;;;;;;;;;;16.10;99.90;;;;;;5052086;28;20383;-62
2022/05/01 10:15:53;;;;;;;;;;;16.20;99.90;;;;;;5052335;28;20290;-62
2022/05/01 10:18:19;;;;;;;;;;;16.30;99.90;;;;;;5050508;28;19924;-62
2022/05/01 10:20:45;;;;;;;;;;;16.50;99.90;;;;;;5052374;28;19960;-62
2022/05/01 10:23:12;;;;;;;;;;;16.40;99.30;;;;;;5052429;28;20270;-62
2022/05/01 10:25:40;;;;;;;;;;;16.40;99.90;;;;;;5058085;28;19935;-62
2022/05/01 10:28:17;;;;;;;;;;;16.60;99.90;;;;;;5072457;28;19920;-62
2022/05/01 10:33:49;;;;;;;;;;;16.20;99.90;;;;;;5010105;28;19972;-62
2022/05/01 10:36:29;;;;;;;;;;;15.90;99.70;;;;;;5010153;28;20012;-63
2022/05/01 10:39:10;;;;;;;;;;;15.70;99.90;;;;;;5010117;28;19929;-62
2022/05/01 10:41:40;;;;;;;;;;;15.80;99.90;;;;;;5010156;28;19921;-64
2022/05/01 10:44:05;;;;;;;;;;;15.90;99.90;;;;;;5010232;28;19922;-63
2022/05/01 10:46:32;;;;;;;;;;;16.20;99.90;;;;;;5009694;28;19932;-63
2022/05/01 10:49:00;;;;;;;;;;;16.40;99.90;;;;;;5010061;28;20043;-63
2022/05/01 10:51:36;;;;;;;;;;;16.40;98.70;;;;;;5011335;28;19921;-62
2022/05/01 10:54:10;;;;;;;;;;;16.50;98.90;;;;;;5013468;28;19929;-62
2022/05/01 10:56:37;;;;;;;;;;;16.70;98.80;;;;;;5013444;28;19928;-62
2022/05/01 10:59:21;;;;;;;;;;;16.40;99.90;;;;;;5013614;28;20331;-62
2022/05/01 11:01:52;;;;;;;;;;;16.30;99.30;;;;;;5013512;28;19928;-63
2022/05/01 11:04:19;;;;;;;;;;;16.40;99.80;;;;;;5013573;28;19925;-62
2022/05/01 11:06:45;;;;;;;;;;;16.50;99.90;;;;;;5013385;28;19925;-62
2022/05/01 11:09:14;;;;;;;;;;;16.50;99.90;;;;;;5013460;28;20384;-63
2022/05/01 11:11:39;;;;;;;;;;;16.40;99.70;;;;;;5069881;28;19943;-62
2022/05/01 11:14:05;;;;;;;;;;;16.50;99.90;;;;;;5075282;28;20358;-63
2022/05/01 11:16:51;;;;;;;;;;;16.50;99.90;;;;;;5075059;28;19920;-63
2022/05/01 11:19:17;;;;;;;;;;;16.60;99.90;;;;;;5074788;28;20493;-65
2022/05/01 11:21:49;;;;;;;;;;;16.40;98.90;;;;;;5074994;28;20003;-64
2022/05/01 11:24:15;;;;;;;;;;;16.40;99.40;;;;;;5075008;28;19989;-64
2022/05/01 11:26:59;;;;;;;;;;;16.20;99.70;;;;;;5074449;28;20433;-64
2022/05/01 11:29:25;;;;;;;;;;;16.00;99.90;;;;;;5074767;28;19921;-64
2022/05/01 11:31:51;;;;;;;;;;;15.90;99.10;;;;;;5074781;28;19970;-63
2022/05/01 11:34:17;;;;;;;;;;;16.10;99.90;;;;;;5074700;28;19927;-63
2022/05/01 11:36:49;;;;;;;;;;;16.30;99.90;;;;;;5074802;28;20007;-64
2022/05/01 11:39:15;;;;;;;;;;;16.40;99.90;;;;;;5074674;28;19928;-64
2022/05/01 11:41:42;;;;;;;;;;;16.40;99.20;;;;;;5074456;28;19921;-63
2022/05/01 11:44:23;;;;;;;;;;;16.70;99.90;;;;;;5074771;28;19928;-64
2022/05/01 11:46:49;;;;;;;;;;;16.70;99.90;;;;;;5074526;28;19931;-64
2022/05/01 11:49:15;;;;;;;;;;;16.80;99.50;;;;;;5074541;28;20282;-63
2022/05/01 11:51:40;;;;;;;;;;;16.50;98.00;;;;;;5074648;28;20355;-61
2022/05/01 11:54:09;;;;;;;;;;;16.60;99.30;;;;;;5074737;28;19982;-62
2022/05/01 12:04:46;;;;;;;;;;;16.70;99.30;;;;;;5074057;28;19920;-62
2022/05/01 12:07:15;;;;;;;;;;;17.10;98.80;;;;;;5074350;28;19931;-62
2022/05/01 12:09:42;;;;;;;;;;;17.30;99.10;;;;;;5074312;28;19990;-62
2022/05/01 12:12:12;;;;;;;;;;;17.50;98.90;;;;;;5074189;28;19929;-63
2022/05/01 12:14:38;;;;;;;;;;;17.60;97.30;;;;;;5074121;28;19932;-63
2022/05/01 12:17:07;;;;;;;;;;;17.80;98.00;;;;;;5073775;28;19921;-62
2022/05/01 12:19:37;;;;;;;;;;;18.00;97.60;;;;;;5073760;28;19928;-63
2022/05/01 12:22:07;;;;;;;;;;;17.80;96.10;;;;;;5073891;28;19921;-62
2022/05/01 12:24:33;;;;;;;;;;;17.80;95.20;;;;;;5074219;28;19920;-63
2022/05/01 12:26:59;;;;;;;;;;;17.70;95.90;;;;;;5073507;28;19951;-62
2022/05/01 12:29:25;;;;;;;;;;;18.30;97.80;;;;;;5073645;28;20483;-63
2022/05/01 12:31:53;;;;;;;;;;;18.50;97.00;;;;;;5073604;28;19920;-63
2022/05/01 12:34:23;;;;;;;;;;;18.60;96.80;;;;;;5073588;28;19930;-63
2022/05/01 12:36:52;;;;;;;;;;;18.60;95.70;;;;;;5055829;28;20357;-63
2022/05/01 12:39:19;;;;;;;;;;;18.40;95.40;;;;;;5073907;28;20295;-63
2022/05/01 12:45:01;;;;;;;;;;;18.70;95.30;;;;;;5073485;28;19920;-63
2022/05/01 12:47:31;;;;;;;;;;;18.80;96.40;;;;;;5073164;28;19931;-64
2022/05/01 12:49:56;;;;;;;;;;;19.00;96.00;;;;;;5073269;28;19920;-63
2022/05/01 12:52:32;;;;;;;;;;;18.90;95.60;;;;;;5073147;28;19927;-63
2022/05/01 12:55:17;;;;;;;;;;;18.70;93.60;;;;;;5073407;28;19921;-63
2022/05/01 12:57:48;;;;;;;;;;;18.80;94.60;;;;;;5073023;28;19927;-63
2022/05/01 13:00:37;;;;;;;;;;;18.70;94.10;;;;;;5073392;28;19920;-63
2022/05/01 13:03:21;;;;;;;;;;;18.70;96.00;;;;;;4991389;28;19922;-63
2022/05/01 13:05:56;;;;;;;;;;;18.60;94.60;;;;;;4990733;28;19937;-63
2022/05/01 13:08:22;;;;;;;;;;;18.20;95.30;;;;;;4991343;28;20410;-63
2022/05/01 13:11:06;;;;;;;;;;;18.20;97.40;;;;;;4991714;28;19930;-63
2022/05/01 13:13:41;;;;;;;;;;;17.90;96.60;;;;;;4991366;28;19929;-64
2022/05/01 13:16:07;;;;;;;;;;;17.90;97.60;;;;;;4991481;28;19922;-64
2022/05/01 13:18:32;;;;;;;;;;;18.10;98.40;;;;;;4991358;28;19922;-64
2022/05/01 13:20:58;;;;;;;;;;;18.10;97.90;;;;;;4991249;28;20016;-64
2022/05/01 13:23:23;;;;;;;;;;;18.40;98.20;;;;;;4991454;28;19925;-62
2022/05/01 13:25:49;;;;;;;;;;;18.30;96.80;;;;;;4990987;28;20422;-62
2022/05/01 13:28:14;;;;;;;;;;;18.70;97.40;;;;;;4991057;28;20029;-63
2022/05/01 13:30:40;;;;;;;;;;;19.00;96.70;;;;;;4991073;28;20178;-63
2022/05/01 13:33:05;;;;;;;;;;;19.20;97.00;;;;;;4990955;28;19964;-63
2022/05/01 13:35:31;;;;;;;;;;;19.00;96.60;;;;;;4991013;28;20343;-63
2022/05/01 13:37:56;;;;;;;;;;;19.30;97.50;;;;;;4990974;28;19921;-63
2022/05/01 13:45:50;;;;;;;;;;;19.50;95.40;;;;;;5072441;28;20011;-63
2022/05/01 13:48:17;;;;;;;;;;;19.60;95.50;;;;;;5072237;28;20019;-61
2022/05/01 13:50:42;;;;;;;;;;;19.70;95.10;;;;;;5072246;28;19925;-60
2022/05/01 13:53:13;;;;;;;;;;;19.80;93.10;;;;;;5072305;28;19932;-60
2022/05/01 13:55:39;;;;;;;;;;;19.50;95.20;;;;;;5054245;28;20021;-60
2022/05/01 13:58:04;;;;;;;;;;;19.50;92.70;;;;;;5072328;28;19920;-60
2022/05/01 14:00:30;;;;;;;;;;;19.10;93.20;;;;;;5072319;28;19947;-60
2022/05/01 14:02:56;;;;;;;;;;;18.90;93.30;;;;;;5072273;28;19934;-60
2022/05/01 14:05:21;;;;;;;;;;;18.80;93.40;;;;;;5072055;28;20007;-60
2022/05/01 14:07:47;;;;;;;;;;;18.90;94.10;;;;;;5071974;28;20468;-60
2022/05/01 14:10:12;;;;;;;;;;;18.40;93.90;;;;;;5072047;28;20008;-60
2022/05/01 14:12:38;;;;;;;;;;;18.80;95.90;;;;;;5071788;28;20015;-60
2022/05/01 14:15:04;;;;;;;;;;;19.30;95.40;;;;;;5071974;28;20011;-60
2022/05/01 14:17:29;;;;;;;;;;;19.20;96.90;;;;;;5071991;28;20012;-60
2022/05/01 14:19:56;;;;;;;;;;;19.40;97.50;;;;;;5071894;28;19966;-60
2022/05/01 14:22:22;;;;;;;;;;;19.10;97.10;;;;;;5072105;28;19920;-60
2022/05/01 14:24:50;;;;;;;;;;;18.70;97.80;;;;;;5071730;28;19920;-60
2022/05/01 14:27:16;;;;;;;;;;;18.60;98.50;;;;;;5072394;28;20393;-61
2022/05/01 14:29:41;;;;;;;;;;;18.30;98.00;;;;;;5075877;28;19951;-61
2022/05/01 14:32:22;;;;;;;;;;;18.20;98.00;;;;;;5075773;28;19966;-59
2022/05/01 14:34:54;;;;;;;;;;;17.70;97.50;;;;;;5075819;28;19931;-60
2022/05/01 14:37:43;;;;;;;;;;;17.70;98.10;;;;;;5075938;28;19924;-60
2022/05/01 14:40:10;;;;;;;;;;;17.60;98.90;;;;;;5064722;28;19921;-60
2022/05/01 14:42:38;;;;;;;;;;;17.10;97.70;;;;;;5075584;28;19974;-60
2022/05/01 14:45:06;;;;;;;;;;;16.90;98.00;;;;;;5075461;28;19927;-60
2022/05/01 14:47:39;;;;;;;;;;;16.80;98.60;;;;;;5075523;28;19986;-60
2022/05/01 14:50:08;;;;;;;;;;;16.90;99.10;;;;;;5057863;28;19999;-60
2022/05/01 14:52:33;;;;;;;;;;;17.30;99.60;;;;;;5075523;28;19920;-60
2022/05/01 14:55:01;;;;;;;;;;;17.60;98.80;;;;;;5075284;28;19920;-60
2022/05/01 14:57:26;;;;;;;;;;;17.80;99.30;;;;;;5075291;28;19921;-61
2022/05/01 15:08:11;;;;;;;;;;;16.90;98.80;;;;;;5075183;28;20416;-63